Aérodrome :
LOGIN :

S'inscrire | Disclaimer

   EN    FR    IT 

 










Légende :    VFR   VFR Marginal   IFR   IFR Intensif   IFR Très Intensif
Visi : 
Plafond : 
>= 8 km
>= 3000ft
5 à 8 km
1000 à 3000 ft
1500m à 5 km
500 à 1000 ft
800 à 1500m
200 à 500 ft
< 800m
< 200 ft
Symboles :   Orages  Brouillard  Fortes neiges  Fortes précipitations  Vent > 20 kt
SIGMETs :   Divers  Orages  Givrage  Turbulence  Onde Orograph.  Cendres Volcan.







- Altitude de l'aérodrome : 63 ft
- Code IATA : BZM


EHWO - Woensdrecht Airbase

DERNIER METAR :
  • 181055Z AUTO VRB06KT 9999 SCT041 BKN046 OVC051 16/06 Q1028 BLU 36005KT 9999 FEW040 SCT050

METARs EXPIRÉS :
  • 181025Z AUTO VRB05KT 9999 OVC036 16/07 Q1028 BLU 36005KT 9999 FEW040 SCT050
  • 180955Z AUTO 01005KT 330V110 9999 OVC041 16/07 Q1028 BLU 36005KT 9999 FEW040 SCT050
  • 180930Z AUTO VRB04KT 9999 SCT042 SCT059 17/07 Q1028 BLU VRB01KT 9999 FEW045 SCT060 BECMG 35005KT
  • 180855Z AUTO 03003KT 210V020 9999 NCD 16/06 Q1028 BLU VRB01KT 9999 FEW035 BKN048 BECMG 35005KT
  • 180825Z AUTO VRB02KT 9999 NCD 15/06 Q1027 BLU VRB01KT 9999 FEW035 BKN048 BECMG 35005KT

TAF TAF EHWO
Valide du 18 à 05h jusqu'au 18 à 17h UTC


180431Z 1805/1817 VRB02KT 9999 SCT030 BKN045
BECMG 1810/1813 36007KT
Pas de NOTAMs connus pour ce terrain.



MET'MAP, la Météo Aéronautique d'un coup d'oeil ! - Copyright ORBIFLY Décembre 2007 - Disclaimer

ORBIFLY MET'MAP TEAM :

Programmation & Développement : Alexandra Zaïnal
Conception & Développement : Baudouin d'Aumeries
Co-Programmation & Développement : Marc-Olivier Méhu
Soutien technique & logistique : Manuel Goepfert

Contact : metmap@orbifly.com




SOURCES & CREDITS :

   NOAA